createdAt,value
2023-05-02T00:00:48.067Z,24.80
2023-05-02T00:03:19.691Z,23.95
2023-05-02T00:05:50.092Z,26.48
2023-05-02T00:08:20.645Z,24.77
2023-05-02T00:10:51.294Z,26.23
2023-05-02T00:13:21.738Z,24.67
2023-05-02T00:15:52.101Z,25.05
2023-05-02T00:18:22.524Z,26.23
2023-05-02T00:20:53.449Z,24.98
2023-05-02T00:23:23.939Z,25.35
2023-05-02T00:25:54.568Z,25.65
2023-05-02T00:28:25.104Z,25.73
2023-05-02T00:30:55.895Z,26.63
2023-05-02T00:33:26.426Z,24.77
2023-05-02T00:35:56.505Z,25.02
2023-05-02T00:38:26.791Z,24.75
2023-05-02T00:40:57.129Z,25.73
2023-05-02T00:43:28.376Z,25.52
2023-05-02T00:48:28.861Z,24.08
2023-05-02T00:50:59.864Z,25.58
2023-05-02T00:53:30.158Z,23.45
2023-05-02T00:56:04.642Z,25.77
2023-05-02T00:58:36.837Z,25.55
2023-05-02T01:01:32.664Z,25.85
2023-05-02T01:04:03.361Z,26.60
2023-05-02T01:06:45.711Z,24.17
2023-05-02T01:09:21.699Z,25.02
2023-05-02T01:12:12.698Z,27.13
2023-05-02T01:14:47.973Z,27.48
2023-05-02T01:17:19.890Z,28.08
2023-05-02T01:20:01.151Z,27.42
2023-05-02T01:22:33.161Z,27.38
2023-05-02T01:25:41.713Z,24.38
2023-05-02T01:28:36.136Z,26.83
2023-05-02T01:31:08.854Z,25.80
2023-05-02T01:33:41.233Z,24.92
2023-05-02T01:36:12.323Z,26.30
2023-05-02T01:38:45.211Z,25.27
2023-05-02T01:41:16.798Z,25.25
2023-05-02T01:43:48.518Z,23.80
2023-05-02T01:46:19.106Z,24.25
2023-05-02T01:48:51.906Z,24.83
2023-05-02T01:51:24.201Z,23.85
2023-05-02T01:53:55.904Z,24.35
2023-05-02T01:56:27.878Z,23.95
2023-05-02T01:58:59.497Z,23.35
2023-05-02T02:01:33.508Z,23.80
2023-05-02T02:04:07.580Z,23.95
2023-05-02T02:06:38.833Z,23.85
2023-05-02T02:09:09.436Z,22.90
2023-05-02T02:12:09.955Z,20.80
2023-05-02T02:14:42.461Z,20.88
2023-05-02T02:17:21.056Z,23.83
2023-05-02T02:19:54.796Z,23.17
2023-05-02T02:22:29.814Z,23.77
2023-05-02T02:25:01.984Z,23.25
2023-05-02T02:27:32.527Z,23.88
2023-05-02T02:30:03.863Z,24.60
2023-05-02T02:32:34.153Z,25.42
2023-05-02T02:35:08.266Z,24.03
2023-05-02T02:37:45.581Z,23.30
2023-05-02T02:40:34.609Z,23.60
2023-05-02T02:43:21.275Z,23.58
2023-05-02T02:46:11.865Z,24.48
2023-05-02T02:48:51.450Z,24.40
2023-05-02T02:51:40.604Z,23.85
2023-05-02T02:54:34.689Z,24.08
2023-05-02T02:57:17.925Z,22.88
2023-05-02T03:00:16.559Z,26.65
2023-05-02T03:02:49.426Z,25.45
2023-05-02T03:05:20.317Z,23.70
2023-05-02T03:07:51.010Z,24.15
2023-05-02T03:10:25.267Z,23.63
2023-05-02T03:12:58.750Z,23.58
2023-05-02T03:15:40.073Z,24.08
2023-05-02T03:18:11.787Z,25.52
2023-05-02T03:20:43.185Z,24.02
2023-05-02T03:23:13.868Z,23.15
2023-05-02T03:25:45.482Z,23.10
2023-05-02T03:28:22.232Z,23.88
2023-05-02T03:30:54.581Z,24.05
2023-05-02T03:33:26.189Z,23.80
2023-05-02T03:35:56.467Z,24.33
2023-05-02T03:38:27.120Z,24.60
2023-05-02T03:43:30.255Z,23.27
2023-05-02T03:46:01.113Z,23.52
2023-05-02T03:48:32.044Z,22.77
2023-05-02T03:51:03.123Z,22.03
2023-05-02T03:53:39.866Z,21.92
2023-05-02T03:58:52.568Z,22.33
2023-05-02T04:01:26.729Z,22.27
2023-05-02T04:03:58.429Z,23.00
2023-05-02T04:06:32.803Z,22.65
2023-05-02T04:09:07.461Z,20.52
2023-05-02T04:11:54.607Z,21.23
2023-05-02T04:14:26.062Z,23.38
2023-05-02T04:16:58.496Z,23.00
2023-05-02T04:19:46.132Z,23.02
2023-05-02T04:22:17.478Z,21.98
2023-05-02T04:24:53.133Z,21.15
2023-05-02T04:27:23.929Z,21.80
2023-05-02T04:29:54.450Z,21.95
2023-05-02T04:32:25.792Z,21.58
2023-05-02T04:34:57.222Z,21.40
2023-05-02T04:37:28.777Z,21.80
2023-05-02T04:39:59.762Z,21.17
2023-05-02T04:42:33.451Z,21.52
2023-05-02T04:45:15.723Z,23.80
2023-05-02T04:47:47.749Z,22.20
2023-05-02T04:50:18.178Z,22.73
2023-05-02T04:52:48.704Z,21.37
2023-05-02T04:55:19.049Z,22.90
2023-05-02T04:57:49.412Z,23.37
2023-05-02T05:02:51.065Z,22.42
2023-05-02T05:05:21.567Z,23.67
2023-05-02T05:07:52.469Z,24.92
2023-05-02T05:10:24.881Z,27.42
2023-05-02T05:12:55.894Z,24.43
2023-05-02T05:15:28.402Z,25.17
2023-05-02T05:18:01.546Z,23.67
2023-05-02T05:20:31.971Z,24.97
2023-05-02T05:23:04.399Z,25.10
2023-05-02T05:25:36.337Z,25.08
2023-05-02T05:28:06.756Z,25.38
2023-05-02T05:30:39.308Z,26.48
2023-05-02T05:33:13.275Z,26.05
2023-05-02T05:35:43.766Z,25.63
2023-05-02T05:38:14.208Z,25.33
2023-05-02T05:40:47.304Z,26.40
2023-05-02T05:43:17.886Z,26.35
2023-05-02T05:45:48.050Z,25.45
2023-05-02T05:48:19.292Z,24.95
2023-05-02T05:50:49.992Z,23.85
2023-05-02T05:53:20.610Z,25.20
2023-05-02T05:55:52.363Z,27.75
2023-05-02T05:58:22.911Z,25.63
2023-05-02T06:00:55.777Z,25.83
2023-05-02T06:03:26.772Z,26.77
2023-05-02T06:05:57.522Z,24.67
2023-05-02T06:10:59.126Z,23.38
2023-05-02T06:13:29.592Z,24.52
2023-05-02T06:16:04.990Z,23.52
2023-05-02T06:18:35.569Z,22.67
2023-05-02T06:21:10.932Z,24.80
2023-05-02T06:23:41.789Z,22.95
2023-05-02T06:26:12.648Z,23.25
2023-05-02T06:28:43.254Z,21.33
2023-05-02T06:31:13.659Z,22.40
2023-05-02T06:33:43.971Z,22.63
2023-05-02T06:36:14.805Z,22.30
2023-05-02T06:38:45.078Z,22.08
2023-05-02T06:41:18.809Z,22.90
2023-05-02T06:43:49.225Z,21.45
2023-05-02T06:46:21.182Z,22.50
2023-05-02T06:48:51.719Z,20.13
2023-05-02T06:51:23.546Z,19.50
2023-05-02T06:53:53.957Z,22.33
2023-05-02T06:56:24.278Z,21.30
2023-05-02T06:58:55.237Z,21.58
2023-05-02T07:01:25.595Z,21.17
2023-05-02T07:03:56.737Z,20.27
2023-05-02T07:06:27.515Z,21.10
2023-05-02T07:08:57.976Z,19.92
2023-05-02T07:11:28.694Z,20.38
2023-05-02T07:14:00.235Z,19.55
2023-05-02T07:16:31.155Z,20.63
2023-05-02T07:19:01.871Z,21.05
2023-05-02T07:21:32.117Z,21.30
2023-05-02T07:24:02.567Z,20.20
2023-05-02T07:26:32.981Z,20.45
2023-05-02T07:29:04.149Z,18.73
2023-05-02T07:31:34.404Z,21.08
2023-05-02T07:34:04.897Z,20.03
2023-05-02T07:36:35.353Z,19.75
2023-05-02T07:39:05.686Z,19.13
2023-05-02T07:41:35.879Z,18.77
2023-05-02T07:44:05.996Z,20.08
2023-05-02T07:46:36.228Z,18.80
2023-05-02T07:49:06.662Z,20.43
2023-05-02T07:51:36.954Z,19.37
2023-05-02T07:54:20.831Z,20.00
2023-05-02T07:56:54.091Z,19.90
2023-05-02T07:59:24.374Z,19.10
2023-05-02T08:01:54.618Z,21.50
2023-05-02T08:04:25.054Z,23.35
2023-05-02T08:06:55.652Z,20.97
2023-05-02T08:09:28.445Z,21.10
2023-05-02T08:11:58.697Z,21.13
2023-05-02T08:14:28.804Z,22.55
2023-05-02T08:16:59.079Z,20.90
2023-05-02T08:19:29.926Z,22.02
2023-05-02T08:22:00.296Z,20.90
2023-05-02T08:24:30.578Z,19.53
2023-05-02T08:27:00.860Z,20.73
2023-05-02T08:29:31.054Z,19.75
2023-05-02T08:32:01.663Z,20.45
2023-05-02T08:34:32.051Z,20.55
2023-05-02T08:37:02.909Z,21.23
2023-05-02T08:39:35.997Z,20.83
2023-05-02T08:42:11.008Z,20.60
2023-05-02T08:44:41.315Z,19.02
2023-05-02T08:47:17.144Z,19.05
2023-05-02T08:49:49.080Z,19.88
2023-05-02T08:52:22.994Z,18.17
2023-05-02T08:54:54.712Z,19.80
2023-05-02T08:57:25.003Z,18.67
2023-05-02T08:59:55.441Z,19.20
2023-05-02T09:02:47.465Z,18.50
2023-05-02T09:05:23.509Z,19.05
2023-05-02T09:07:55.003Z,19.52
2023-05-02T09:10:28.844Z,19.58
2023-05-02T09:12:59.318Z,19.95
2023-05-02T09:15:29.605Z,19.37
2023-05-02T09:18:00.061Z,18.67
2023-05-02T09:20:30.396Z,19.07
2023-05-02T09:23:00.734Z,18.52
2023-05-02T09:25:40.244Z,18.27
2023-05-02T09:28:10.607Z,19.52
2023-05-02T09:30:41.056Z,20.70
2023-05-02T09:33:11.496Z,20.30
2023-05-02T09:35:58.044Z,20.77
2023-05-02T09:38:28.439Z,22.58
2023-05-02T09:40:59.208Z,21.23
2023-05-02T09:43:29.961Z,21.33
2023-05-02T09:46:18.885Z,22.50
2023-05-02T09:49:01.633Z,22.13
2023-05-02T09:51:31.887Z,22.45
2023-05-02T09:54:02.305Z,21.80
2023-05-02T09:56:32.652Z,21.92
2023-05-02T09:59:19.271Z,22.55
2023-05-02T10:02:01.140Z,22.70
2023-05-02T10:04:34.123Z,22.58
2023-05-02T10:07:06.217Z,21.65
2023-05-02T10:09:38.795Z,21.95
2023-05-02T10:12:10.653Z,21.65
2023-05-02T10:14:49.106Z,22.38
2023-05-02T10:17:33.431Z,22.38
2023-05-02T10:20:06.240Z,22.25
2023-05-02T10:22:37.383Z,21.25
2023-05-02T10:25:08.604Z,22.13
2023-05-02T10:30:11.173Z,21.50
2023-05-02T10:35:12.985Z,22.00
2023-05-02T10:37:44.201Z,20.55
2023-05-02T10:40:17.966Z,20.38
2023-05-02T10:42:53.552Z,20.92
2023-05-02T10:45:37.673Z,22.90
2023-05-02T10:48:17.036Z,21.08
2023-05-02T10:50:54.026Z,21.10
2023-05-02T10:53:34.457Z,21.00
2023-05-02T10:56:30.692Z,16.90
2023-05-02T10:59:30.879Z,15.30
2023-05-02T11:02:01.361Z,13.13
2023-05-02T11:05:08.928Z,11.85
2023-05-02T11:07:40.513Z,10.35
2023-05-02T11:10:22.816Z,9.25
2023-05-02T11:13:03.371Z,9.48
2023-05-02T11:15:35.686Z,8.33
2023-05-02T11:18:16.657Z,8.45
2023-05-02T11:20:48.226Z,7.80
2023-05-02T11:25:50.805Z,8.13
2023-05-02T11:28:44.827Z,7.60
2023-05-02T11:32:01.580Z,7.35
2023-05-02T11:34:32.040Z,7.78
2023-05-02T11:37:02.709Z,7.18
2023-05-02T11:39:32.979Z,7.57
2023-05-02T11:42:03.387Z,8.00
2023-05-02T11:44:33.783Z,7.55
2023-05-02T11:47:05.093Z,8.87
2023-05-02T11:52:05.127Z,9.00
2023-05-02T11:54:35.426Z,9.27
2023-05-02T11:57:05.815Z,9.57
2023-05-02T12:00:00.782Z,8.53
2023-05-02T12:02:42.079Z,9.13
2023-05-02T12:07:48.566Z,8.98
2023-05-02T12:10:18.770Z,9.88
2023-05-02T12:12:49.053Z,10.07
2023-05-02T12:15:20.029Z,10.23
2023-05-02T12:17:54.755Z,9.57
2023-05-02T12:20:25.453Z,10.35
2023-05-02T12:22:55.760Z,11.23
2023-05-02T12:25:26.021Z,9.82
2023-05-02T12:28:06.331Z,11.10
2023-05-02T12:30:37.150Z,10.63
2023-05-02T12:33:08.938Z,11.43
2023-05-02T12:35:39.478Z,10.63
2023-05-02T12:38:17.176Z,10.05
2023-05-02T12:41:00.922Z,10.85
2023-05-02T12:43:48.693Z,11.73
2023-05-02T12:46:19.009Z,11.85
2023-05-02T12:48:49.282Z,11.80
2023-05-02T12:51:29.382Z,11.48
2023-05-02T12:53:59.539Z,12.07
2023-05-02T12:56:34.898Z,11.48
2023-05-02T12:59:07.634Z,12.15
2023-05-02T13:01:38.525Z,12.10
2023-05-02T13:04:08.917Z,12.55
2023-05-02T13:06:41.433Z,12.13
2023-05-02T13:09:11.709Z,12.75
2023-05-02T13:11:42.111Z,13.27
2023-05-02T13:14:13.944Z,13.02
2023-05-02T13:16:44.256Z,13.05
2023-05-02T13:19:14.596Z,13.60
2023-05-02T13:21:45.097Z,13.30
2023-05-02T13:24:15.677Z,14.23
2023-05-02T13:26:46.763Z,13.03
2023-05-02T13:29:17.082Z,13.70
2023-05-02T13:31:47.279Z,14.73
2023-05-02T13:34:17.582Z,15.17
2023-05-02T13:36:48.564Z,15.30
2023-05-02T13:39:18.912Z,14.43
2023-05-02T13:41:49.174Z,15.60
2023-05-02T13:59:45.022Z,17.77
2023-05-02T14:02:15.624Z,17.13
2023-05-02T14:04:46.106Z,18.23
2023-05-02T14:07:16.542Z,17.40
2023-05-02T14:09:46.972Z,15.73
2023-05-02T14:12:17.212Z,17.00
2023-05-02T14:14:47.323Z,17.95
2023-05-02T14:17:17.719Z,18.10
2023-05-02T14:19:48.011Z,17.50
2023-05-02T14:22:18.575Z,18.10
2023-05-02T14:24:48.814Z,17.08
2023-05-02T14:27:22.692Z,17.88
2023-05-02T14:29:53.188Z,18.40
2023-05-02T14:32:24.059Z,17.03
2023-05-02T14:34:54.402Z,17.88
2023-05-02T14:37:25.456Z,17.48
2023-05-02T14:42:28.952Z,18.05
2023-05-02T14:44:59.780Z,17.20
2023-05-02T14:47:33.519Z,16.88
2023-05-02T14:50:05.706Z,16.70
2023-05-02T14:52:36.051Z,17.00
2023-05-02T14:55:07.096Z,16.15
2023-05-02T14:57:37.579Z,16.83
2023-05-02T15:00:15.108Z,18.00
2023-05-02T15:02:45.517Z,18.70
2023-05-02T15:05:15.888Z,16.95
2023-05-02T15:07:46.312Z,17.55
2023-05-02T15:10:16.535Z,17.33
2023-05-02T15:15:54.038Z,18.10
2023-05-02T15:18:24.463Z,18.15
2023-05-02T15:20:54.760Z,17.33
2023-05-02T15:23:25.058Z,18.10
2023-05-02T15:25:55.327Z,18.15
2023-05-02T15:28:25.634Z,18.25
2023-05-02T15:30:55.973Z,16.77
2023-05-02T15:33:26.270Z,17.92
2023-05-02T15:36:03.317Z,17.85
2023-05-02T15:38:33.757Z,18.30
2023-05-02T15:41:04.111Z,18.07
2023-05-02T15:43:34.634Z,17.40
2023-05-02T15:46:05.143Z,17.33
2023-05-02T15:48:37.143Z,19.80
2023-05-02T15:51:11.525Z,17.15
2023-05-02T15:53:44.864Z,18.88
2023-05-02T15:56:15.457Z,19.73
2023-05-02T15:58:46.108Z,17.90
2023-05-02T16:01:16.506Z,18.83
2023-05-02T16:03:46.968Z,16.85
2023-05-02T16:06:18.506Z,18.10
2023-05-02T16:08:48.978Z,18.75
2023-05-02T16:11:19.372Z,18.17
2023-05-02T16:13:49.609Z,19.30
2023-05-02T16:16:20.113Z,19.45
2023-05-02T16:18:50.610Z,18.83
2023-05-02T16:21:21.139Z,19.47
2023-05-02T16:23:51.604Z,18.93
2023-05-02T16:26:23.216Z,19.75
2023-05-02T16:28:53.619Z,18.05
2023-05-02T16:31:23.864Z,19.38
2023-05-02T16:33:54.326Z,19.63
2023-05-02T16:36:25.173Z,18.65
2023-05-02T16:38:55.631Z,19.05
2023-05-02T16:41:25.984Z,19.02
2023-05-02T16:43:56.274Z,18.00
2023-05-02T16:46:26.416Z,17.90
2023-05-02T16:48:56.757Z,17.17
2023-05-02T16:51:26.888Z,18.15
2023-05-02T16:53:57.186Z,17.10
2023-05-02T16:56:27.352Z,17.02
2023-05-02T16:58:58.057Z,16.88
2023-05-02T17:01:28.400Z,17.77
2023-05-02T17:03:58.794Z,16.65
2023-05-02T17:06:29.081Z,16.93
2023-05-02T17:09:00.118Z,17.55
2023-05-02T17:11:30.942Z,15.60
2023-05-02T17:14:01.604Z,15.82
2023-05-02T17:16:32.203Z,16.00
2023-05-02T17:19:03.065Z,15.68
2023-05-02T17:21:33.834Z,16.13
2023-05-02T17:24:04.473Z,14.25
2023-05-02T17:26:34.870Z,14.43
2023-05-02T17:29:05.314Z,15.20
2023-05-02T17:31:35.711Z,14.27
2023-05-02T17:34:06.122Z,15.33
2023-05-02T17:36:36.762Z,14.40
2023-05-02T17:39:07.416Z,15.13
2023-05-02T17:41:40.929Z,13.57
2023-05-02T17:44:11.172Z,13.52
2023-05-02T17:46:41.547Z,13.93
2023-05-02T17:49:11.926Z,14.90
2023-05-02T17:51:42.353Z,14.17
2023-05-02T17:54:12.979Z,13.70
2023-05-02T17:56:43.331Z,12.37
2023-05-02T17:59:14.178Z,14.20
2023-05-02T18:01:44.581Z,13.75
2023-05-02T18:04:15.111Z,13.52
2023-05-02T18:06:45.663Z,13.75
2023-05-02T18:09:16.070Z,13.88
2023-05-02T18:11:46.446Z,13.90
2023-05-02T18:14:17.765Z,13.53
2023-05-02T18:16:51.533Z,14.32
2023-05-02T18:19:21.826Z,15.15
2023-05-02T18:21:52.313Z,14.27
2023-05-02T18:24:22.804Z,12.40
2023-05-02T18:26:53.327Z,12.97
2023-05-02T18:29:23.621Z,13.67
2023-05-02T18:31:54.923Z,12.93
2023-05-02T18:36:55.762Z,13.43
2023-05-02T18:39:26.051Z,13.03
2023-05-02T18:41:56.221Z,12.63
2023-05-02T18:44:26.929Z,12.40
2023-05-02T18:46:57.405Z,13.70
2023-05-02T18:49:28.724Z,11.93
2023-05-02T18:51:59.544Z,13.95
2023-05-02T18:54:30.431Z,12.68
2023-05-02T18:57:01.230Z,12.52
2023-05-02T18:59:32.133Z,11.68
2023-05-02T19:02:03.219Z,13.27
2023-05-02T19:04:34.246Z,13.45
2023-05-02T19:09:34.499Z,13.05
2023-05-02T19:12:04.773Z,12.55
2023-05-02T19:14:44.795Z,12.60
2023-05-02T19:17:15.413Z,12.55
2023-05-02T19:19:45.915Z,13.20
2023-05-02T19:22:17.286Z,12.83
2023-05-02T19:24:47.843Z,12.40
2023-05-02T19:27:18.213Z,13.60
2023-05-02T19:29:48.531Z,12.20
2023-05-02T19:32:18.620Z,13.40
2023-05-02T19:34:49.620Z,12.45
2023-05-02T19:37:19.955Z,12.93
2023-05-02T19:39:50.187Z,13.52
2023-05-02T19:42:20.452Z,12.82
2023-05-02T19:44:51.809Z,13.93
2023-05-02T19:49:53.886Z,14.45
2023-05-02T19:52:24.174Z,13.68
2023-05-02T19:54:54.411Z,14.07
2023-05-02T19:57:24.814Z,13.60
2023-05-02T19:59:55.377Z,13.63
2023-05-02T20:02:26.406Z,13.13
2023-05-02T20:07:27.754Z,13.00
2023-05-02T20:09:57.905Z,13.57
2023-05-02T20:12:28.274Z,14.15
2023-05-02T20:14:58.686Z,13.60
2023-05-02T20:17:29.633Z,13.43
2023-05-02T20:20:00.246Z,13.20
2023-05-02T20:22:30.581Z,14.13
2023-05-02T20:25:00.894Z,13.68
2023-05-02T20:27:31.003Z,14.38
2023-05-02T20:30:01.698Z,14.55
2023-05-02T20:32:32.218Z,14.50
2023-05-02T20:35:02.687Z,13.40
2023-05-02T20:37:33.105Z,13.45
2023-05-02T20:40:04.715Z,14.43
2023-05-02T20:42:35.856Z,13.43
2023-05-02T20:45:09.537Z,13.88
2023-05-02T20:47:39.949Z,13.82
2023-05-02T20:50:11.860Z,13.93
2023-05-02T20:52:42.117Z,15.50
2023-05-02T20:55:13.972Z,14.07
2023-05-02T20:57:44.312Z,14.57
2023-05-02T21:00:16.107Z,15.07
2023-05-02T21:02:46.408Z,14.98
2023-05-02T21:05:16.843Z,14.77
2023-05-02T21:07:47.385Z,15.32
2023-05-02T21:10:18.333Z,15.32
2023-05-02T21:12:48.623Z,15.68
2023-05-02T21:15:19.178Z,15.90
2023-05-02T21:17:49.560Z,16.83
2023-05-02T21:20:20.008Z,17.23
2023-05-02T21:22:50.238Z,16.70
2023-05-02T21:25:20.616Z,16.63
2023-05-02T21:27:50.758Z,16.58
2023-05-02T21:30:21.667Z,16.98
2023-05-02T21:32:52.032Z,16.85
2023-05-02T21:35:22.582Z,16.97
2023-05-02T21:37:52.982Z,17.60
2023-05-02T21:40:23.172Z,17.63
2023-05-02T21:42:53.385Z,18.52
2023-05-02T21:45:23.788Z,19.08
2023-05-02T21:47:55.038Z,18.33
2023-05-02T21:52:55.863Z,19.10
2023-05-02T21:55:26.322Z,17.43
2023-05-02T21:57:56.530Z,18.40
2023-05-02T22:00:27.134Z,17.92
2023-05-02T22:02:57.795Z,18.80
2023-05-02T22:05:30.107Z,18.27
2023-05-02T22:08:03.225Z,19.08
2023-05-02T22:10:33.715Z,19.98
2023-05-02T22:13:05.649Z,18.53
2023-05-02T22:15:35.961Z,19.15
2023-05-02T22:18:09.033Z,19.52
2023-05-02T22:20:40.435Z,19.42
2023-05-02T22:25:47.043Z,20.10
2023-05-02T22:28:17.533Z,19.13
2023-05-02T22:30:47.867Z,18.93
2023-05-02T22:33:18.300Z,20.50
2023-05-02T22:35:48.623Z,21.35
2023-05-02T22:38:22.228Z,20.50
2023-05-02T22:40:52.942Z,19.70
2023-05-02T22:43:23.256Z,19.87
2023-05-02T22:45:54.287Z,21.17
2023-05-02T22:48:25.687Z,22.42
2023-05-02T22:50:56.258Z,21.65
2023-05-02T22:53:27.424Z,22.23
2023-05-02T22:55:58.477Z,22.40
2023-05-02T23:01:02.219Z,23.08
2023-05-02T23:03:32.684Z,22.35
2023-05-02T23:06:03.354Z,23.40
2023-05-02T23:08:33.612Z,24.08
2023-05-02T23:11:03.879Z,22.30
2023-05-02T23:13:34.147Z,23.25
2023-05-02T23:16:04.823Z,24.80
2023-05-02T23:18:35.064Z,23.83
2023-05-02T23:21:07.108Z,23.42
2023-05-02T23:23:37.398Z,23.30
2023-05-02T23:26:10.242Z,21.97
2023-05-02T23:28:41.553Z,21.20
2023-05-02T23:31:12.522Z,21.67
2023-05-02T23:33:45.235Z,21.25
2023-05-02T23:36:15.676Z,22.23
2023-05-02T23:38:46.067Z,22.08
2023-05-02T23:41:16.600Z,20.83
2023-05-02T23:43:47.464Z,21.42
2023-05-02T23:46:17.835Z,20.35
2023-05-02T23:48:48.257Z,22.20
2023-05-02T23:51:18.567Z,20.45
2023-05-02T23:53:48.891Z,23.45
2023-05-02T23:56:19.273Z,24.02
2023-05-02T23:58:49.604Z,22.70
